Terminal Aerodrome Forecast
Issued by NWS Sioux Falls, SD

Home | Current Version | Previous Version | Text Only | Print | Product List | Glossary Off
Versions: 1 2 3 4 5 6 7 8 9 10 11 12 13 14 15 16 17 18 19 20 21 22 23 24 25 26 27 28 29 30 31 32 33

128
FTUS43 KFSD 191137
TAFSUX
TAF
KSUX 191137Z 1912/2012 01013G20KT 4SM -FZDZ OVC010
     FM191600 01015G25KT P6SM VCSH OVC010
     FM200000 01010KT P6SM OVC015
     FM200500 01011KT 6SM -FZDZ OVC015=

USA.gov is the U.S. government's official web portal to all federal, state and local government web resources and services.